• Join FlightAware (Why Join?)
  • Login
  • US Flag 
05:40AM EST


 

Airport Tracker/Info


-or-


 

Live Flight TrackerFlight Track Log ✈ AAL2345 ✈ 24-Apr-2013 ✈ KORD - KDFW

Flight Track Log - Related Links

Times and Time Zones

All times are in EDT time to prevent confusion due to time zone crossing. See the AAL2345 flight status page for this flight to view local times or setup timezone preferences in your user account.

Time Position Orientation Groundspeed Altitude Reporting Facility
EDT Latitude Longitude Course Direction KTS MPH feet Rate Location/Type
07:32PM 41.9000 -87.9167 207° Southwest 200 230 3,600  Level Chicago TRACON
07:33PM 41.8731 -87.9278 197° South 219 252 4,500 2,489 Climbing Chicago Center
07:34PM 41.7774 -88.1484 201° Southwest  Level Estimated
07:34PM 41.8003 -87.9444 190° South 255 293 7,500  Level Chicago Center
07:35PM 41.6899 -88.1163 165° South  Level FlightAware Approximate
07:35PM 41.7283 -87.9847 203° Southwest 277 319 11,100  Level Chicago Center
07:36PM 41.6221 -88.1970 197° South  Level Estimated
07:36PM 41.6550 -88.0292 204° Southwest 288 331 13,600  Level Chicago Center
07:37PM 41.5329 -88.1748 169° South  Level FlightAware Approximate
07:37PM 41.5586 -88.0811 202° Southwest 314 361 15,800  Level Chicago Center
07:38PM 41.4582 -88.2645 207° Southwest  Level Estimated
07:38PM 41.4642 -88.1206 197° South 347 399 17,900  Level Chicago Center
07:39PM 41.3731 -88.1639 200° South 365 420 20,600 2,565 Climbing Chicago Center
07:40PM 41.2572 -88.2258 202° Southwest 378 435 23,200 2,177 Climbing Chicago Center
07:41PM 41.1556 -88.2725 199° South 388 447 25,100 1,872 Climbing Chicago Center
07:42PM 41.0528 -88.3203 199° South 394 453 27,100 1,728 Climbing Chicago Center
07:43PM 40.9481 -88.3697 200° South 399 459 28,700 1,548 Climbing Chicago Center
07:44PM 40.8717 -88.4575 221° Southwest 369 425 30,300 1,306 Climbing Chicago Center
07:45PM 40.7942 -88.5469 221° Southwest 369 425 31,400 823 Climbing Chicago Center
07:46PM 40.7003 -88.6500 220° Southwest 366 421 32,000 290 Climbing Chicago Center
07:47PM 40.6236 -88.7342 220° Southwest 362 417 32,000  Level Chicago Center
07:48PM 40.5467 -88.8183 220° Southwest 361 415 32,000  Level Chicago Center
07:49PM 40.4728 -88.8975 219° Southwest 361 415 32,000  Level Chicago Center
07:50PM 40.3811 -88.9981 220° Southwest 357 411 32,000  Level Chicago Center
07:51PM 40.3044 -89.0811 220° Southwest 356 410 32,000  Level Chicago Center
07:52PM 40.2289 -89.1642 220° Southwest 355 409 32,000  Level Chicago Center
07:53PM 40.1514 -89.2497 220° Southwest 361 415 32,000  Level Chicago Center
07:54PM 40.0917 -89.3144 220° Southwest 352 405 32,000  Level Kansas City Center
07:55PM 40.0158 -89.3961 220° Southwest 352 405 32,000  Level Kansas City Center
07:56PM 40.0025 -89.4122 223° Southwest 342 394 32,000  Level Chicago Center
07:57PM 39.9267 -89.4939 220° Southwest 349 402 32,000  Level Chicago Center
07:57PM 39.8653 -89.5586 219° Southwest 350 403 32,000  Level Kansas City Center
07:58PM 39.7914 -89.6408 221° Southwest 349 402 32,000  Level Kansas City Center
07:59PM 39.7167 -89.7189 219° Southwest 346 398 32,000  Level Kansas City Center
08:00PM 39.6325 -89.8083 219° Southwest 341 392 32,000  Level Kansas City Center
08:01PM 39.5597 -89.8872 220° Southwest 341 392 32,000  Level Kansas City Center
08:02PM 39.4886 -89.9628 219° Southwest 336 387 32,000  Level Kansas City Center
08:03PM 39.4175 -90.0372 219° Southwest 332 382 32,000  Level Kansas City Center
08:05PM 39.3478 -90.1122 220° Southwest 328 377 32,000  Level Kansas City Center
08:06PM 39.2772 -90.1858 219° Southwest 328 377 32,000  Level Kansas City Center
08:07PM 39.2078 -90.2589 219° Southwest 325 374 32,000  Level Kansas City Center
08:08PM 39.1244 -90.3481 220° Southwest 325 374 32,000  Level Kansas City Center
08:09PM 39.0561 -90.4211 220° Southwest 323 372 32,000  Level Kansas City Center
08:10PM 38.9858 -90.4928 218° Southwest 324 373 32,000  Level Kansas City Center
08:11PM 38.9117 -90.5689 219° Southwest 319 367 32,000  Level Kansas City Center
08:12PM 38.8414 -90.6411 219° Southwest 320 368 32,000  Level Kansas City Center
08:13PM 38.7658 -90.7214 220° Southwest 323 372 32,000  Level Kansas City Center
08:14PM 38.6956 -90.7925 218° Southwest 324 373 32,000  Level Kansas City Center
08:16PM 38.5547 -90.9381 219° Southwest 327 376 32,000  Level Kansas City Center
08:17PM 38.4831 -91.0117 219° Southwest 330 380 32,000  Level Kansas City Center
08:18PM 38.3964 -91.0997 219° Southwest 332 382 32,000  Level Kansas City Center
08:19PM 38.3231 -91.1728 218° Southwest 334 384 32,000  Level Kansas City Center
08:20PM 38.2514 -91.2472 219° Southwest 333 383 32,000  Level Kansas City Center
08:21PM 38.1775 -91.3228 219° Southwest 337 388 32,000  Level Kansas City Center
08:22PM 38.1056 -91.3942 218° Southwest 334 384 32,000  Level Kansas City Center
08:23PM 38.0328 -91.4697 219° Southwest 333 383 32,000  Level Kansas City Center
08:24PM 37.9578 -91.5450 218° Southwest 337 388 32,000  Level Kansas City Center
08:25PM 37.8644 -91.6367 218° Southwest 346 398 32,000  Level Kansas City Center
08:26PM 37.7889 -91.7125 218° Southwest 345 397 32,000  Level Kansas City Center
08:27PM 37.7136 -91.7881 218° Southwest 343 395 32,000  Level Kansas City Center
08:28PM 37.6367 -91.8656 219° Southwest 348 400 32,000  Level Kansas City Center
08:29PM 37.5603 -91.9417 218° Southwest 348 400 32,000  Level Kansas City Center
08:30PM 37.4831 -92.0186 218° Southwest 350 403 32,000  Level Kansas City Center
08:31PM 37.4117 -92.1011 223° Southwest 347 399 32,000  Level Kansas City Center
08:32PM 37.3392 -92.1797 221° Southwest 344 396 32,000  Level Kansas City Center
08:33PM 37.2661 -92.2611 222° Southwest 346 398 32,000  Level Kansas City Center
08:34PM 37.1936 -92.3414 221° Southwest 347 399 32,000  Level Kansas City Center
08:35PM 37.1067 -92.4389 222° Southwest 348 400 32,000  Level Kansas City Center
08:36PM 37.0331 -92.5197 221° Southwest 349 402 32,000  Level Kansas City Center
08:37PM 36.9600 -92.5992 221° Southwest 347 399 32,000  Level Kansas City Center
08:39PM 36.8867 -92.6794 221° Southwest 348 400 32,000  Level Kansas City Center
08:40PM 36.8122 -92.7592 221° Southwest 351 404 32,000  Level Kansas City Center
08:41PM 36.7389 -92.8389 221° Southwest 350 403 32,000  Level Kansas City Center
08:42PM 36.6642 -92.9200 221° Southwest 353 406 32,000  Level Kansas City Center
08:43PM 36.5764 -93.0183 222° Southwest 349 402 32,000  Level Memphis Center
08:44PM 36.5017 -93.0958 220° Southwest 349 402 32,000  Level Memphis Center
08:45PM 36.4356 -93.1658 220° Southwest 349 402 32,000  Level Memphis Center
08:46PM 36.3650 -93.2433 222° Southwest 349 402 32,000  Level Memphis Center
08:47PM 36.2925 -93.3181 220° Southwest 342 394 32,000  Level Memphis Center
08:48PM 36.2175 -93.3978 221° Southwest 342 394 32,000  Level Memphis Center
08:49PM 36.1447 -93.4772 221° Southwest 342 394 32,000  Level Memphis Center
08:50PM 36.0739 -93.5542 221° Southwest 342 394 32,000  Level Memphis Center
08:51PM 36.0256 -93.6472 237° Southwest 337 388 32,000  Level Memphis Center
08:52PM 35.9833 -93.7481 243° Southwest 332 382 32,000  Level Memphis Center
08:53PM 35.9431 -93.8492 244° Southwest 332 382 32,000  Level Memphis Center
08:54PM 35.9006 -93.9497 242° Southwest 332 382 32,000 -200 Level Memphis Center
08:55PM 35.8600 -94.0556 245° Southwest 337 388 31,600 -650 Descending Memphis Center
08:56PM 35.8194 -94.1561 244° Southwest 337 388 30,700 -800 Descending Memphis Center
08:57PM 35.7806 -94.2592 245° Southwest 337 388 30,000 -350 Descending Memphis Center
08:58PM 35.7294 -94.3617 238° Southwest 337 388 30,000  Level Memphis Center
08:59PM 35.6358 -94.4183 206° Southwest 349 402 30,000  Level Memphis Center
09:00PM 35.5344 -94.4594 198° South 370 426 30,000  Level Memphis Center
09:01PM 35.4308 -94.5053 200° South 383 441 30,000  Level Memphis Center
09:02PM 35.3272 -94.5433 197° South 394 453 30,000  Level Memphis Center
09:03PM 35.2236 -94.5867 199° South 394 453 30,000  Level Memphis Center
09:04PM 35.0983 -94.6475 202° Southwest 364 419 30,000  Level Fort Worth Center
09:05PM 34.9972 -94.6992 203° Southwest 403 464 30,000  Level Fort Worth Center
09:06PM 34.9219 -94.7825 222° Southwest 370 426 30,000  Level Fort Worth Center
09:07PM 34.8444 -94.8658 221° Southwest 363 418 30,000  Level Fort Worth Center
09:08PM 34.7689 -94.9489 222° Southwest 363 418 30,000 -248 Level Fort Worth Center
09:09PM 34.6911 -95.0294 220° Southwest 369 425 29,500 -1,000 Descending Fort Worth Center
09:10PM 34.6194 -95.1047 221° Southwest 369 425 28,000 -1,513 Descending Fort Worth Center
09:11PM 34.5794 -95.1967 242° Southwest 330 380 26,500 -1,488 Descending Fort Worth Center
09:12PM 34.5686 -95.2928 262° West 306 352 25,000 -1,200 Descending Fort Worth Center
09:13PM 34.5494 -95.3914 257° West 300 345 24,100 -504 Descending Fort Worth Center
09:14PM 34.4794 -95.4511 215° Southwest 284 327 24,000 -50 Descending Fort Worth Center
09:15PM 34.3950 -95.5233 215° Southwest 324 373 24,000  Level Fort Worth Center
09:16PM 34.3144 -95.5906 215° Southwest 356 410 24,000  Level Fort Worth Center
09:17PM 34.2281 -95.6628 215° Southwest 382 440 24,000 -595 Level Fort Worth Center
09:18PM 34.1414 -95.7372 215° Southwest 388 447 22,800 -1,800 Descending Fort Worth Center
09:19PM 34.0567 -95.8067 214° Southwest 388 447 20,400 -2,319 Descending Fort Worth Center
09:20PM 33.9761 -95.8781 216° Southwest 375 432 18,200 -1,700 Descending Fort Worth Center
09:21PM 33.8914 -95.9472 214° Southwest 375 432 17,000 -1,350 Descending Fort Worth Center
09:22PM 33.8006 -96.0186 213° Southwest 364 419 15,500 -1,250 Descending Fort Worth Center
09:23PM 33.7300 -96.0772 215° Southwest 359 413 14,500 -1,041 Descending Fort Worth Center
09:24PM 33.6453 -96.1483 215° Southwest 353 406 13,400 -1,000 Descending Fort Worth Center
09:25PM 33.5667 -96.2119 214° Southwest 348 400 12,500 -1,008 Descending Fort Worth Center
09:26PM 33.4983 -96.2825 221° Southwest 348 400 11,400 -750 Descending Fort Worth Center
09:27PM 33.4364 -96.3581 226° Southwest 325 374 11,000 -200 Descending Fort Worth Center
09:28PM 33.3764 -96.4308 225° Southwest 313 360 11,000  Level Fort Worth Center
09:30PM 33.2564 -96.5714 224° Southwest 308 354 11,000  Level Fort Worth Center
09:31PM 33.2047 -96.6339 225° Southwest 282 325 11,000  Level Fort Worth Center
09:32PM 33.1569 -96.6914 225° Southwest 271 312 11,000  Level Fort Worth Center
09:33PM 33.1031 -96.7561 225° Southwest 266 306 11,000  Level Fort Worth Center
09:33PM 33.0833 -96.7833 229° Southwest 236 272 11,000  Level Dallas / Fort Worth TRACON
09:34PM 33.0333 -96.8167 209° Southwest 218 251 11,000  Level Dallas / Fort Worth TRACON
09:35PM 33.0000 -96.8833 239° Southwest 215 247 11,000 -197 Level Dallas / Fort Worth TRACON
09:36PM 32.9500 -96.9000 196° South 242 278 10,600 -1,252 Descending Dallas / Fort Worth TRACON
09:37PM 32.8833 -96.9000 180° South 247 284 8,600 -1,785 Descending Dallas / Fort Worth TRACON
09:38PM 32.8167 -96.9000 180° South 235 270 7,000 -1,701 Descending Dallas / Fort Worth TRACON
09:39PM 32.7500 -96.9000 180° South 229 264 5,000 -1,417 Descending Dallas / Fort Worth TRACON
09:40PM 32.6833 -96.9500 212° Southwest 252 290 4,000 -787 Descending Dallas / Fort Worth TRACON
09:41PM 32.7167 -97.0000 308° West 174 200 3,400 -590 Descending Dallas / Fort Worth TRACON